Time;durP1;ratioP1;P1;durP2;ratioP2;P2;SDS_P1;SDS_P2;PMS_P1;PMS_P2;Temp;Humidity;BMP_temperature;BMP_pressure;BME280_temperature;BME280_humidity;BME280_pressure;Samples;Min_cycle;Max_cycle;Signal;HPM_P1;HPM_P2
2021/09/15 00:02:10;;;;;;;3.87;1.03;;;9.60;39.20;;;;;;4865510;28;20190;-77
2021/09/15 00:04:33;;;;;;;5.07;1.23;;;;;;;;;;4867075;28;20184;-77
2021/09/15 00:06:56;;;;;;;10.70;2.07;;;;;;;;;;4869008;28;20194;-79
2021/09/15 00:09:19;;;;;;;7.80;1.70;;;;;;;;;;4860408;28;20182;-76
2021/09/15 00:11:42;;;;;;;6.93;1.43;;;;;;;;;;4867247;28;20563;-77
2021/09/15 00:14:04;;;;;;;7.80;1.63;;;;;;;;;;4867807;28;20248;-79
2021/09/15 00:16:27;;;;;;;3.67;0.97;;;;;;;;;;4867458;28;20201;-79
2021/09/15 00:18:51;;;;;;;7.53;1.37;;;9.40;38.90;;;;;;4867045;28;20655;-77
2021/09/15 00:21:14;;;;;;;9.37;1.60;;;;;;;;;;4867036;28;20243;-77
2021/09/15 00:23:37;;;;;;;10.63;2.00;;;;;;;;;;4863961;28;20255;-79
2021/09/15 00:26:00;;;;;;;9.00;1.53;;;;;;;;;;4868561;28;20212;-78
2021/09/15 00:28:22;;;;;;;39.70;14.73;;;;;;;;;;4860031;28;20201;-75
2021/09/15 00:30:47;;;;;;;3.57;0.90;;;;;;;;;;4861067;28;21054;-76
2021/09/15 00:33:09;;;;;;;6.20;1.30;;;;;;;;;;4865084;28;20193;-78
2021/09/15 00:35:33;;;;;;;10.13;1.87;;;9.40;37.70;;;;;;4868616;28;20272;-77
2021/09/15 00:37:56;;;;;;;7.63;1.40;;;;;;;;;;4864637;28;20737;-77
2021/09/15 00:40:19;;;;;;;8.17;1.57;;;;;;;;;;4869331;28;20186;-79
2021/09/15 00:42:41;;;;;;;11.27;1.97;;;;;;;;;;4864573;28;20228;-78
2021/09/15 00:45:07;;;;;;;7.53;1.40;;;9.50;36.60;;;;;;4883334;28;20217;-76
2021/09/15 00:47:30;;;;;;;25.03;4.07;;;;;;;;;;4866486;28;20242;-78
2021/09/15 00:49:54;;;;;;;18.17;2.93;;;;;;;;;;4863606;28;20307;-78
2021/09/15 00:52:18;;;;;;;6.00;1.20;;;9.50;37.00;;;;;;4865661;28;20193;-75
2021/09/15 00:54:43;;;;;;;19.53;7.83;;;;;;;;;;4862985;28;20271;-78
2021/09/15 00:57:07;;;;;;;9.67;1.43;;;;;;;;;;4864539;28;20198;-76
2021/09/15 00:59:30;;;;;;;15.80;2.20;;;;;;;;;;4866313;28;20194;-79
2021/09/15 01:01:54;;;;;;;33.17;16.60;;;;;;;;;;4863643;28;20240;-77
2021/09/15 01:04:18;;;;;;;3.13;1.27;;;9.40;37.40;;;;;;4864711;28;20255;-74
2021/09/15 01:06:46;;;;;;;3.37;1.33;;;;;;;;;;4860932;28;20607;-75
2021/09/15 01:09:12;;;;;;;2.63;1.20;;;9.40;37.50;;;;;;4863857;28;20598;-74
2021/09/15 01:11:37;;;;;;;3.73;1.73;;;9.20;37.60;;;;;;4865690;28;20193;-75
2021/09/15 01:14:20;;;;;;;2.40;1.13;;;;;;;;;;4856266;28;20201;-75
2021/09/15 01:17:00;;;;;;;2.43;1.17;;;9.30;37.90;;;;;;4867122;28;20216;-75
2021/09/15 01:19:41;;;;;;;2.10;1.00;;;;;;;;;;4863006;28;20212;-75
2021/09/15 01:22:36;;;;;;;3.33;1.50;;;9.20;37.80;;;;;;4866102;28;20397;-75
2021/09/15 01:25:18;;;;;;;1.47;0.83;;;9.20;37.80;;;;;;4885747;28;20674;-75
2021/09/15 01:28:07;;;;;;;1.03;0.80;;;;;;;;;;4862485;28;20890;-77
2021/09/15 01:30:38;;;;;;;3.13;1.53;;;;;;;;;;4864505;28;20173;-75
2021/09/15 01:33:01;;;;;;;2.43;1.27;;;;;;;;;;4858822;28;20233;-75
2021/09/15 01:35:24;;;;;;;1.63;0.93;;;;;;;;;;4880859;28;20221;-74
2021/09/15 01:37:48;;;;;;;1.20;0.80;;;9.00;38.80;;;;;;4873390;28;20205;-74
2021/09/15 01:40:11;;;;;;;1.57;0.97;;;9.00;39.00;;;;;;4881989;28;20197;-74
2021/09/15 01:42:34;;;;;;;2.13;1.13;;;;;;;;;;4868084;28;20201;-75
2021/09/15 01:44:59;;;;;;;2.40;1.30;;;;;;;;;;4882572;28;20197;-74
2021/09/15 01:47:22;;;;;;;1.93;1.13;;;;;;;;;;4888123;28;20220;-75
2021/09/15 01:49:46;;;;;;;1.90;1.27;;;8.80;39.20;;;;;;4864075;28;20239;-74
2021/09/15 01:52:11;;;;;;;0.83;0.70;;;8.80;39.40;;;;;;4857854;28;20194;-75
2021/09/15 01:54:36;;;;;;;1.73;1.13;;;8.80;39.60;;;;;;4865538;28;20213;-75
2021/09/15 01:57:00;;;;;;;1.73;1.10;;;;;;;;;;4866438;28;20260;-75
2021/09/15 01:59:42;;;;;;;1.27;1.03;;;;;;;;;;4859468;28;20240;-75
2021/09/15 02:02:27;;;;;;;1.23;0.80;;;;;;;;;;4866362;28;20236;-76
2021/09/15 02:04:53;;;;;;;1.97;1.20;;;;;;;;;;4887603;28;20845;-75
2021/09/15 02:07:27;;;;;;;0.83;0.80;;;;;;;;;;4865838;28;20248;-75
2021/09/15 02:10:17;;;;;;;1.57;1.10;;;8.50;39.40;;;;;;4859631;28;20198;-75
2021/09/15 02:12:40;;;;;;;1.63;1.20;;;;;;;;;;4868890;28;20201;-75
2021/09/15 02:15:03;;;;;;;2.23;1.63;;;;;;;;;;4868930;28;20206;-77
2021/09/15 02:17:26;;;;;;;1.17;0.97;;;;;;;;;;4865202;28;20214;-75
2021/09/15 02:19:51;;;;;;;1.13;0.80;;;;;;;;;;4883371;28;20259;-78
2021/09/15 02:22:34;;;;;;;2.33;1.50;;;;;;;;;;4855455;28;20251;-76
2021/09/15 02:25:21;;;;;;;1.77;1.20;;;8.50;37.60;;;;;;4869014;28;20240;-77
2021/09/15 02:28:02;;;;;;;1.27;1.00;;;;;;;;;;4886007;28;20196;-78
2021/09/15 02:30:39;;;;;;;1.37;1.13;;;;;;;;;;4871940;28;20262;-79
2021/09/15 02:33:09;;;;;;;0.57;0.57;;;;;;;;;;4874513;28;20205;-76
2021/09/15 02:35:44;;;;;;;1.20;1.00;;;;;;;;;;4865322;28;20217;-78
2021/09/15 02:38:37;;;;;;;1.40;1.17;;;;;;;;;;4877790;28;20193;-78
2021/09/15 02:41:21;;;;;;;1.07;0.80;;;8.40;39.10;;;;;;4868079;28;20190;-77
2021/09/15 02:43:54;;;;;;;1.37;1.10;;;;;;;;;;4882141;28;20199;-76
2021/09/15 02:46:43;;;;;;;1.30;1.00;;;;;;;;;;4851209;28;20194;-77
2021/09/15 02:49:32;;;;;;;1.17;0.87;;;;;;;;;;4868423;28;20208;-76
2021/09/15 02:52:20;;;;;;;1.13;0.93;;;;;;;;;;4860008;28;20197;-79
2021/09/15 02:55:01;;;;;;;1.10;1.00;;;;;;;;;;4870525;28;20217;-77
2021/09/15 02:57:30;;;;;;;1.07;0.80;;;8.20;39.70;;;;;;4870578;28;20230;-78
2021/09/15 03:00:05;;;;;;;0.70;0.70;;;8.20;39.20;;;;;;4872815;28;20239;-78
2021/09/15 03:02:48;;;;;;;0.53;0.53;;;;;;;;;;4865380;28;20231;-77
2021/09/15 03:05:31;;;;;;;1.20;0.93;;;;;;;;;;4863404;28;20240;-78
2021/09/15 03:08:26;;;;;;;1.67;1.37;;;;;;;;;;4870112;28;20713;-77
2021/09/15 03:10:49;;;;;;;0.67;0.60;;;;;;;;;;4869216;28;20193;-76
2021/09/15 03:13:13;;;;;;;0.63;0.53;;;8.30;37.40;;;;;;4864236;28;20182;-76
2021/09/15 03:15:36;;;;;;;2.00;1.33;;;;;;;;;;4858345;28;20535;-78
2021/09/15 03:17:59;;;;;;;0.93;0.83;;;;;;;;;;4869406;28;20217;-80
2021/09/15 03:20:23;;;;;;;1.10;0.97;;;;;;;;;;4865065;28;20228;-78
2021/09/15 03:22:45;;;;;;;0.93;0.93;;;;;;;;;;4868421;28;20217;-78
2021/09/15 03:25:08;;;;;;;0.70;0.70;;;8.00;38.40;;;;;;4866596;28;20263;-76
2021/09/15 03:27:31;;;;;;;1.27;1.00;;;;;;;;;;4865487;28;20198;-77
2021/09/15 03:29:55;;;;;;;1.67;1.37;;;8.10;38.70;;;;;;4878012;28;20239;-78
2021/09/15 03:32:18;;;;;;;1.00;0.90;;;;;;;;;;4883417;28;20196;-79
2021/09/15 03:34:41;;;;;;;1.17;1.07;;;;;;;;;;4865814;28;20189;-79
2021/09/15 03:37:04;;;;;;;0.97;0.87;;;;;;;;;;4872042;28;20229;-77
2021/09/15 03:39:27;;;;;;;0.60;0.60;;;;;;;;;;4864965;28;20730;-77
2021/09/15 03:41:50;;;;;;;0.70;0.63;;;;;;;;;;4877730;28;20224;-79
2021/09/15 03:44:13;;;;;;;0.93;0.80;;;;;;;;;;4860065;28;20202;-79
2021/09/15 03:46:37;;;;;;;1.37;1.07;;;8.00;37.70;;;;;;4871418;28;20249;-78
2021/09/15 03:49:01;;;;;;;0.80;0.80;;;;;;;;;;4879997;28;20611;-79
2021/09/15 03:51:23;;;;;;;1.00;0.90;;;;;;;;;;4881474;28;20231;-79
2021/09/15 03:53:46;;;;;;;0.80;0.80;;;;;;;;;;4857888;28;20259;-78
2021/09/15 03:56:09;;;;;;;0.70;0.67;;;;;;;;;;4865445;28;20202;-76
2021/09/15 03:58:33;;;;;;;1.00;0.90;;;;;;;;;;4860430;28;20707;-74
2021/09/15 04:00:56;;;;;;;0.70;0.70;;;;;;;;;;4879335;28;20201;-74
2021/09/15 04:03:20;;;;;;;0.70;0.70;;;7.90;38.00;;;;;;4880989;28;20682;-74
2021/09/15 04:05:43;;;;;;;0.87;0.83;;;;;;;;;;4883114;28;20201;-75
2021/09/15 04:08:06;;;;;;;0.53;0.53;;;;;;;;;;4870352;28;20628;-75
2021/09/15 04:10:29;;;;;;;0.60;0.60;;;;;;;;;;4865781;28;20206;-75
2021/09/15 04:12:54;;;;;;;1.07;0.93;;;;;;;;;;4869785;28;20636;-74
2021/09/15 04:15:18;;;;;;;0.63;0.63;;;;;;;;;;4865194;28;20208;-75
2021/09/15 04:17:42;;;;;;;0.80;0.80;;;;;;;;;;4864736;28;20237;-74
2021/09/15 04:20:08;;;;;;;0.60;0.60;;;7.70;38.10;;;;;;4879859;28;20271;-75
2021/09/15 04:22:32;;;;;;;0.60;0.60;;;;;;;;;;4857921;28;20827;-74
2021/09/15 04:32:54;;;;;;;0.67;0.67;;;;;;;;;;4865696;28;20205;-76
2021/09/15 04:35:18;;;;;;;0.60;0.60;;;7.70;37.90;;;;;;4862358;28;20275;-75
2021/09/15 04:37:43;;;;;;;0.60;0.60;;;;;;;;;;4881243;28;20229;-76
2021/09/15 04:40:06;;;;;;;0.53;0.53;;;7.70;37.50;;;;;;4886602;28;20201;-75
2021/09/15 04:42:30;;;;;;;0.40;0.40;;;;;;;;;;4880012;28;20612;-74
2021/09/15 04:44:53;;;;;;;0.63;0.63;;;;;;;;;;4879326;28;20200;-74
2021/09/15 04:47:17;;;;;;;0.67;0.67;;;;;;;;;;4855484;28;20201;-76
2021/09/15 04:49:39;;;;;;;0.73;0.73;;;;;;;;;;4866034;28;20239;-75
2021/09/15 04:52:04;;;;;;;0.63;0.63;;;7.90;35.90;;;;;;4867338;28;20188;-79
2021/09/15 04:54:28;;;;;;;0.57;0.57;;;;;;;;;;4880328;28;20578;-75
2021/09/15 04:56:52;;;;;;;0.57;0.57;;;;;;;;;;4879018;28;20213;-75
2021/09/15 04:59:18;;;;;;;0.40;0.40;;;;;;;;;;4867541;28;20275;-79
2021/09/15 05:01:41;;;;;;;0.60;0.60;;;;;;;;;;4864426;28;20202;-75
2021/09/15 05:04:06;;;;;;;0.50;0.50;;;;;;;;;;4865681;28;20225;-74
2021/09/15 05:06:29;;;;;;;0.50;0.50;;;;;;;;;;4879192;28;20728;-75
2021/09/15 05:08:53;;;;;;;0.43;0.43;;;7.60;35.20;;;;;;4869358;28;20726;-78
2021/09/15 05:11:16;;;;;;;0.50;0.50;;;;;;;;;;4875788;28;20223;-75
2021/09/15 05:13:40;;;;;;;0.80;0.80;;;;;;;;;;4865632;28;20242;-75
2021/09/15 05:16:03;;;;;;;0.73;0.73;;;;;;;;;;4859794;28;20198;-80
2021/09/15 05:18:29;;;;;;;0.60;0.60;;;;;;;;;;4868756;28;20217;-74
2021/09/15 05:20:52;;;;;;;0.53;0.53;;;;;;;;;;4877415;28;20662;-78
2021/09/15 05:23:15;;;;;;;0.50;0.50;;;;;;;;;;4868284;28;20567;-74
2021/09/15 05:25:40;;;;;;;0.60;0.60;;;9.10;32.80;;;;;;4857055;28;20194;-75
2021/09/15 05:28:06;;;;;;;0.60;0.60;;;;;;;;;;4878298;28;20194;-75
2021/09/15 05:30:33;;;;;;;0.43;0.43;;;;;;;;;;4859978;28;20243;-79
2021/09/15 05:32:57;;;;;;;0.70;0.70;;;;;;;;;;4878579;28;20274;-74
2021/09/15 05:35:21;;;;;;;0.70;0.70;;;;;;;;;;4864275;28;20221;-75
2021/09/15 05:37:45;;;;;;;0.90;0.90;;;;;;;;;;4860788;28;20656;-75
2021/09/15 05:40:09;;;;;;;0.60;0.60;;;9.90;31.10;;;;;;4879159;28;20560;-80
2021/09/15 05:42:34;;;;;;;0.47;0.47;;;10.10;30.40;;;;;;4863687;28;20198;-79
2021/09/15 05:45:02;;;;;;;0.70;0.70;;;;;;;;;;4863016;28;20202;-79
2021/09/15 05:47:25;;;;;;;0.60;0.60;;;;;;;;;;4859655;28;20280;-79
2021/09/15 05:49:48;;;;;;;0.53;0.53;;;;;;;;;;4878349;28;20193;-78
2021/09/15 05:52:11;;;;;;;0.53;0.53;;;;;;;;;;4863945;28;20809;-80
2021/09/15 05:54:34;;;;;;;0.73;0.73;;;;;;;;;;4869838;28;20229;-75
2021/09/15 05:56:57;;;;;;;0.60;0.60;;;;;;;;;;4884668;28;20254;-77
2021/09/15 05:59:21;;;;;;;0.70;0.70;;;11.50;99.90;;;;;;4858391;28;20276;-76
2021/09/15 06:01:44;;;;;;;0.73;0.73;;;;;;;;;;4873786;28;20205;-80
2021/09/15 06:04:06;;;;;;;0.60;0.60;;;;;;;;;;4873911;28;20201;-81
2021/09/15 06:06:34;;;;;;;0.70;0.70;;;;;;;;;;4860588;28;20231;-79
2021/09/15 06:08:59;;;;;;;0.50;0.50;;;;;;;;;;4887349;28;20205;-80
2021/09/15 06:11:22;;;;;;;0.50;0.50;;;;;;;;;;4865967;28;20206;-78
2021/09/15 06:13:45;;;;;;;0.57;0.57;;;;;;;;;;4876026;28;20193;-74
2021/09/15 06:16:10;;;;;;;0.80;0.80;;;12.60;99.90;;;;;;4849924;28;20191;-75
2021/09/15 06:18:34;;;;;;;0.67;0.67;;;;;;;;;;4865775;28;20289;-76
2021/09/15 06:21:16;;;;;;;0.80;0.80;;;;;;;;;;4860882;28;20202;-74
2021/09/15 06:23:51;;;;;;;0.50;0.50;;;;;;;;;;4866732;28;20235;-74
2021/09/15 06:26:16;;;;;;;0.60;0.60;;;;;;;;;;4860479;28;20656;-74
2021/09/15 06:28:39;;;;;;;1.10;1.00;;;13.30;99.90;;;;;;4871524;28;20198;-76
2021/09/15 06:31:03;;;;;;;1.10;1.00;;;13.40;30.10;;;;;;4863287;28;20319;-75
2021/09/15 06:33:27;;;;;;;0.60;0.60;;;13.50;30.60;;;;;;4874795;28;20235;-74
2021/09/15 06:35:51;;;;;;;0.80;0.80;;;;;;;;;;4859802;28;20695;-75
2021/09/15 06:38:14;;;;;;;0.63;0.63;;;;;;;;;;4859460;28;20679;-75
2021/09/15 06:40:37;;;;;;;0.97;0.83;;;;;;;;;;4873726;28;20553;-74
2021/09/15 06:42:59;;;;;;;0.63;0.60;;;;;;;;;;4872880;28;20263;-75
2021/09/15 06:45:22;;;;;;;0.60;0.50;;;;;;;;;;4868126;28;20247;-82
2021/09/15 06:47:45;;;;;;;0.80;0.80;;;14.30;39.80;;;;;;4863683;28;20221;-75
2021/09/15 06:50:12;;;;;;;0.83;0.80;;;14.40;41.20;;;;;;4872549;28;20189;-77
2021/09/15 06:52:35;;;;;;;3.33;1.97;;;;;;;;;;4867807;28;20197;-81
2021/09/15 06:54:59;;;;;;;1.03;0.80;;;;;;;;;;4863255;28;20236;-75
2021/09/15 06:57:22;;;;;;;1.37;0.93;;;;;;;;;;4866282;28;20239;-73
2021/09/15 06:59:46;;;;;;;1.30;1.00;;;;;;;;;;4861219;28;20611;-73
2021/09/15 07:02:09;;;;;;;2.23;1.47;;;;;;;;;;4879855;28;20201;-77
2021/09/15 07:04:31;;;;;;;1.90;1.37;;;;;;;;;;4868009;28;20657;-73
2021/09/15 07:06:55;;;;;;;0.67;0.63;;;15.40;46.50;;;;;;4859520;28;20182;-73
2021/09/15 07:09:18;;;;;;;1.60;1.17;;;;;;;;;;4866767;28;20197;-72
2021/09/15 07:11:41;;;;;;;1.70;1.10;;;15.70;47.10;;;;;;4871238;28;20202;-72
2021/09/15 07:14:04;;;;;;;1.70;0.87;;;;;;;;;;4865468;28;20212;-72
2021/09/15 07:16:27;;;;;;;1.77;1.10;;;;;;;;;;4858549;28;20252;-74
2021/09/15 07:19:00;;;;;;;3.50;1.47;;;16.00;47.90;;;;;;4867025;28;20255;-75
2021/09/15 07:21:33;;;;;;;0.90;0.57;;;;;;;;;;4861560;28;20217;-77
2021/09/15 07:23:57;;;;;;;3.43;1.60;;;16.40;48.30;;;;;;4867675;28;20607;-73
2021/09/15 07:26:19;;;;;;;5.37;2.50;;;;;;;;;;4863203;28;20539;-74
2021/09/15 07:28:42;;;;;;;2.53;1.13;;;;;;;;;;4892722;28;20213;-74
2021/09/15 07:31:05;;;;;;;2.30;1.07;;;;;;;;;;4877492;28;20197;-74
2021/09/15 07:33:32;;;;;;;2.47;0.87;;;;;;;;;;4874409;28;20687;-75
2021/09/15 07:35:55;;;;;;;1.20;0.57;;;;;;;;;;4855637;28;20218;-75
2021/09/15 07:38:18;;;;;;;3.13;1.20;;;;;;;;;;4857783;28;20256;-76
2021/09/15 07:40:45;;;;;;;3.47;1.47;;;17.40;49.30;;;;;;4857932;28;20232;-76
2021/09/15 07:43:08;;;;;;;2.43;1.03;;;;;;;;;;4862897;28;20185;-75
2021/09/15 07:45:31;;;;;;;4.03;1.50;;;;;;;;;;4865149;28;20614;-74
2021/09/15 07:47:54;;;;;;;2.33;1.00;;;;;;;;;;4860547;28;20223;-83
2021/09/15 07:50:17;;;;;;;2.93;1.20;;;;;;;;;;4866336;28;20201;-74
2021/09/15 07:52:40;;;;;;;3.77;1.30;;;;;;;;;;4857386;28;20239;-74
2021/09/15 07:55:03;;;;;;;4.37;1.50;;;;;;;;;;4865921;28;20190;-74
2021/09/15 07:57:27;;;;;;;2.67;0.97;;;18.50;50.50;;;;;;4861469;28;20194;-74
2021/09/15 07:59:50;;;;;;;3.27;1.13;;;;;;;;;;4869095;28;20225;-75
2021/09/15 08:02:13;;;;;;;3.80;1.37;;;;;;;;;;4869637;28;20573;-77
2021/09/15 08:04:35;;;;;;;2.90;1.10;;;;;;;;;;4876341;28;20662;-74
2021/09/15 08:06:58;;;;;;;6.37;2.10;;;;;;;;;;4868100;28;20191;-76
2021/09/15 08:09:21;;;;;;;3.70;1.20;;;;;;;;;;4866611;28;20182;-76
2021/09/15 08:11:44;;;;;;;4.83;1.53;;;;;;;;;;4864931;28;20615;-76
2021/09/15 08:14:08;;;;;;;3.10;1.00;;;20.10;51.90;;;;;;4866872;28;20190;-79
2021/09/15 08:16:31;;;;;;;2.47;0.87;;;20.20;51.80;;;;;;4864048;28;20594;-76
2021/09/15 08:18:54;;;;;;;6.63;2.17;;;;;;;;;;4860901;28;20268;-79
2021/09/15 08:21:16;;;;;;;3.77;1.33;;;;;;;;;;4880812;28;20657;-75
2021/09/15 08:23:39;;;;;;;4.10;1.37;;;21.30;52.00;;;;;;4865282;28;20667;-79
2021/09/15 08:26:01;;;;;;;2.80;0.90;;;;;;;;;;4856998;28;20650;-78
2021/09/15 08:28:24;;;;;;;5.20;1.70;;;;;;;;;;4862024;28;20195;-75
2021/09/15 08:30:49;;;;;;;4.10;1.53;;;21.70;53.50;;;;;;4855398;28;20328;-79
2021/09/15 08:33:12;;;;;;;3.20;1.00;;;;;;;;;;4865458;28;20245;-76
2021/09/15 08:35:34;;;;;;;3.50;1.13;;;;;;;;;;4863817;28;20220;-75
2021/09/15 08:37:57;;;;;;;4.30;1.10;;;;;;;;;;4859388;28;20193;-79
2021/09/15 08:40:20;;;;;;;5.97;1.53;;;;;;;;;;4861872;28;20267;-79
2021/09/15 08:42:44;;;;;;;8.27;1.67;;;;;;;;;;4869755;28;20224;-78
2021/09/15 08:45:12;;;;;;;7.43;1.40;;;22.80;54.80;;;;;;4865564;28;20243;-81
2021/09/15 08:47:37;;;;;;;6.37;1.17;;;22.90;55.10;;;;;;4862564;28;20647;-79
2021/09/15 08:50:02;;;;;;;4.80;0.90;;;23.00;55.20;;;;;;4875570;28;20216;-75
2021/09/15 08:52:26;;;;;;;9.07;1.50;;;;;;;;;;4866225;28;20185;-77
2021/09/15 08:54:49;;;;;;;23.53;3.83;;;;;;;;;;4864453;28;20732;-78
2021/09/15 08:57:12;;;;;;;9.67;1.50;;;;;;;;;;4855611;28;20857;-78
2021/09/15 08:59:35;;;;;;;9.97;1.47;;;;;;;;;;4864103;28;20257;-74
2021/09/15 09:02:07;;;;;;;13.63;2.13;;;24.10;56.60;;;;;;4859262;28;20605;-74
2021/09/15 09:04:50;;;;;;;5.53;0.97;;;24.40;56.70;;;;;;4862702;28;20215;-75
2021/09/15 09:07:13;;;;;;;7.87;1.30;;;;;;;;;;4863407;28;20234;-82
2021/09/15 09:09:45;;;;;;;11.40;1.77;;;25.50;42.70;;;;;;4866768;28;20242;-74
2021/09/15 09:12:10;;;;;;;14.90;2.17;;;26.80;43.60;;;;;;4865949;28;20195;-77
2021/09/15 09:14:32;;;;;;;8.87;1.37;;;;;;;;;;4863410;28;20192;-78
2021/09/15 09:16:55;;;;;;;9.00;1.33;;;;;;;;;;4864619;28;20197;-81
2021/09/15 09:19:19;;;;;;;14.73;2.07;;;33.30;48.70;;;;;;4880701;28;20222;-74
2021/09/15 09:21:48;;;;;;;18.97;2.50;;;35.30;49.80;;;;;;4881129;28;20203;-75
2021/09/15 09:24:13;;;;;;;11.13;1.50;;;37.20;50.80;;;;;;4857709;28;20240;-80
2021/09/15 09:26:51;;;;;;;12.55;1.75;;;38.90;51.60;;;;;;4864567;28;20185;-84
2021/09/15 09:29:15;;;;;;;13.98;1.85;;;40.20;52.20;;;;;;4865587;28;20208;-75
2021/09/15 09:31:38;;;;;;;17.48;2.22;;;;;;;;;;4863649;28;20193;-78
2021/09/15 09:34:04;;;;;;;22.67;2.85;;;42.40;53.10;;;;;;4863038;28;20251;-78
2021/09/15 09:36:30;;;;;;;13.27;1.67;;;43.20;53.50;;;;;;4862629;28;20233;-82
2021/09/15 09:38:54;;;;;;;9.80;1.33;;;44.00;53.80;;;;;;4866641;28;20243;-81
2021/09/15 09:41:19;;;;;;;12.05;1.60;;;44.90;54.10;;;;;;4871839;28;20226;-81
2021/09/15 09:43:48;;;;;;;19.40;2.47;;;45.60;54.40;;;;;;4869096;28;20251;-84
2021/09/15 09:46:12;;;;;;;10.40;1.45;;;46.30;54.60;;;;;;4862644;28;20197;-75
2021/09/15 09:48:43;;;;;;;12.27;1.70;;;46.70;54.70;;;;;;4863441;28;20190;-73
2021/09/15 09:51:23;;;;;;;14.05;1.80;;;46.90;54.80;;;;;;4863614;28;20267;-72
2021/09/15 09:53:46;;;;;;;21.50;2.80;;;;;;;;;;4858731;28;20263;-74
2021/09/15 09:56:09;;;;;;;25.08;3.28;;;47.20;55.00;;;;;;4858767;28;20247;-74
2021/09/15 09:58:33;;;;;;;10.38;1.40;;;47.20;55.00;;;;;;4859533;28;20189;-75
2021/09/15 10:00:56;;;;;;;12.20;1.70;;;47.20;55.00;;;;;;4866556;28;20725;-75
2021/09/15 10:03:19;;;;;;;14.63;1.98;;;;;;;;;;4868297;28;20185;-74
2021/09/15 10:05:44;;;;;;;18.10;2.38;;;47.00;55.00;;;;;;4865518;28;20190;-75
2021/09/15 10:08:07;;;;;;;9.02;1.27;;;47.00;55.00;;;;;;4866647;28;20186;-74
2021/09/15 10:10:30;;;;;;;7.68;1.02;;;;;;;;;;4868340;28;20622;-74
2021/09/15 10:12:55;;;;;;;6.95;1.00;;;47.00;55.00;;;;;;4869565;28;20655;-74
2021/09/15 10:15:19;;;;;;;13.68;1.80;;;47.20;55.00;;;;;;4862799;28;20252;-74
2021/09/15 10:17:48;;;;;;;23.05;2.88;;;48.00;55.30;;;;;;4865879;28;20190;-74
2021/09/15 10:20:14;;;;;;;18.45;2.35;;;48.30;55.40;;;;;;4870995;28;20231;-80
2021/09/15 10:22:41;;;;;;;10.05;1.27;;;48.10;55.30;;;;;;4865234;28;20186;-74
2021/09/15 10:25:06;;;;;;;13.50;1.83;;;48.30;55.40;;;;;;4869208;28;20192;-77
2021/09/15 10:27:30;;;;;;;10.70;1.45;;;48.50;55.50;;;;;;4863001;28;20193;-76
2021/09/15 10:30:06;;;;;;;9.85;1.30;;;48.20;55.40;;;;;;4859405;28;20210;-73
2021/09/15 10:32:33;;;;;;;10.60;1.45;;;48.40;55.50;;;;;;4858144;28;20243;-78
2021/09/15 10:34:56;;;;;;;39.03;4.93;;;;;;;;;;4858148;28;20213;-75
2021/09/15 10:37:52;;;;;;;11.68;1.52;;;48.90;55.70;;;;;;4858965;28;20614;-78
2021/09/15 10:40:14;;;;;;;14.32;1.88;;;;;;;;;;4860388;28;20232;-74
2021/09/15 10:42:47;;;;;;;14.77;1.95;;;48.80;55.60;;;;;;4864724;28;20205;-76
2021/09/15 10:45:15;;;;;;;13.65;1.83;;;49.10;55.70;;;;;;4865760;28;20223;-74
2021/09/15 10:47:38;;;;;;;18.75;2.42;;;48.50;55.50;;;;;;4863488;28;20193;-74
2021/09/15 10:50:01;;;;;;;19.48;2.63;;;;;;;;;;4861421;28;20236;-74
2021/09/15 10:52:37;;;;;;;9.48;1.35;;;49.20;55.80;;;;;;4858758;28;20189;-78
2021/09/15 10:55:00;;;;;;;16.50;2.22;;;;;;;;;;4859865;28;20197;-75
2021/09/15 10:57:31;;;;;;;16.33;2.20;;;49.30;55.80;;;;;;4866696;28;20231;-79
2021/09/15 10:59:55;;;;;;;7.60;1.08;;;49.40;55.90;;;;;;4870519;28;20620;-74
2021/09/15 11:02:28;;;;;;;11.38;1.63;;;49.50;55.90;;;;;;4868002;28;20264;-80
2021/09/15 11:04:51;;;;;;;37.45;4.78;;;;;;;;;;4866549;28;20627;-76
2021/09/15 11:07:58;;;;;;;10.00;1.40;;;49.20;55.80;;;;;;4871783;28;20202;-75
2021/09/15 11:10:40;;;;;;;9.55;1.33;;;49.60;55.90;;;;;;4858290;28;20204;-78
2021/09/15 11:13:04;;;;;;;42.47;5.60;;;50.80;56.30;;;;;;4865958;28;20189;-84
2021/09/15 11:15:27;;;;;;;10.55;1.50;;;;;;;;;;4860693;28;20189;-75
2021/09/15 11:17:51;;;;;;;16.55;2.25;;;51.50;56.60;;;;;;4863873;28;20236;-84
2021/09/15 11:20:14;;;;;;;8.00;1.10;;;;;;;;;;4873091;28;20193;-73
2021/09/15 11:22:37;;;;;;;23.42;3.00;;;;;;;;;;4874210;28;20239;-74
2021/09/15 11:24:59;;;;;;;18.98;2.58;;;;;;;;;;4870985;28;20255;-75
2021/09/15 11:27:22;;;;;;;13.35;1.85;;;;;;;;;;4859157;28;20189;-81
2021/09/15 11:29:51;;;;;;;17.55;2.40;;;52.20;56.80;;;;;;4861575;28;20189;-76
2021/09/15 11:32:14;;;;;;;9.65;1.42;;;52.20;56.80;;;;;;4875906;28;20211;-80
2021/09/15 11:34:40;;;;;;;18.15;2.47;;;51.90;56.70;;;;;;4861121;28;20186;-79
2021/09/15 11:37:03;;;;;;;10.98;1.60;;;;;;;;;;4866292;28;20185;-81
2021/09/15 11:39:26;;;;;;;12.27;1.73;;;;;;;;;;4867845;28;20182;-81
2021/09/15 11:41:49;;;;;;;18.05;2.42;;;;;;;;;;4866803;28;20659;-75
2021/09/15 11:44:11;;;;;;;15.80;2.13;;;;;;;;;;4865019;28;20256;-77
2021/09/15 11:46:37;;;;;;;12.02;1.55;;;52.10;56.70;;;;;;4866965;28;20242;-76
2021/09/15 11:49:00;;;;;;;8.40;1.20;;;;;;;;;;4868027;28;20254;-75
2021/09/15 11:51:25;;;;;;;11.43;1.63;;;53.90;57.40;;;;;;4864012;28;20757;-75
2021/09/15 11:53:52;;;;;;;13.30;1.92;;;;;;;;;;4868173;28;20724;-78
2021/09/15 11:56:18;;;;;;;17.42;2.28;;;;;;;;;;4858746;28;20182;-84
2021/09/15 11:58:41;;;;;;;22.30;2.75;;;;;;;;;;4870313;28;20212;-74
2021/09/15 12:01:04;;;;;;;23.08;2.88;;;;;;;;;;4871327;28;20658;-78
2021/09/15 12:03:31;;;;;;;14.93;1.83;;;54.20;50.10;;;;;;4865888;28;20292;-76
2021/09/15 12:05:55;;;;;;;18.35;2.40;;;53.00;57.20;;;;;;4877818;28;20208;-75
2021/09/15 12:08:19;;;;;;;16.70;2.17;;;53.10;57.20;;;;;;4863279;28;20181;-82
2021/09/15 12:10:42;;;;;;;25.88;3.15;;;;;;;;;;4867078;28;20205;-77
2021/09/15 12:13:05;;;;;;;10.07;1.38;;;;;;;;;;4863703;28;20239;-82
2021/09/15 12:15:28;;;;;;;9.85;1.38;;;;;;;;;;4875646;28;20197;-74
2021/09/15 12:17:57;;;;;;;19.35;2.53;;;53.50;57.30;;;;;;4863163;28;20299;-74
2021/09/15 12:20:38;;;;;;;11.90;1.55;;;53.70;57.40;;;;;;4856328;28;20193;-75
2021/09/15 12:23:01;;;;;;;10.00;1.40;;;;;;;;;;4860288;28;20235;-79
2021/09/15 12:25:24;;;;;;;14.52;2.00;;;53.80;57.50;;;;;;4860350;28;20733;-75
2021/09/15 12:27:58;;;;;;;21.05;2.75;;;53.50;57.40;;;;;;4865333;28;20622;-75
2021/09/15 12:30:22;;;;;;;20.40;2.67;;;52.30;57.00;;;;;;4865040;28;20532;-73
2021/09/15 12:32:45;;;;;;;24.60;3.30;;;;;;;;;;4860668;28;20193;-73
2021/09/15 12:35:21;;;;;;;10.77;1.63;;;51.10;56.50;;;;;;4857180;28;20237;-73
2021/09/15 12:37:44;;;;;;;17.25;2.35;;;;;;;;;;4868701;28;20181;-75
2021/09/15 12:40:08;;;;;;;10.15;1.42;;;51.10;56.60;;;;;;4875189;28;20239;-76
2021/09/15 12:42:33;;;;;;;10.65;1.50;;;51.60;56.70;;;;;;4865411;28;20566;-74
2021/09/15 12:45:00;;;;;;;35.38;4.75;;;50.50;56.40;;;;;;4874304;28;20659;-76
2021/09/15 12:47:33;;;;;;;10.52;1.48;;;49.70;56.10;;;;;;4859014;28;20181;-74
2021/09/15 12:49:56;;;;;;;8.75;1.33;;;;;;;;;;4867079;28;20698;-75
2021/09/15 12:52:20;;;;;;;12.50;1.77;;;46.70;55.00;;;;;;4880254;28;20593;-77
2021/09/15 12:54:52;;;;;;;25.00;3.30;;;46.30;54.90;;;;;;4862949;28;20556;-72
2021/09/15 12:57:20;;;;;;;13.65;1.95;;;45.90;54.80;;;;;;4867580;28;20178;-72
2021/09/15 12:59:44;;;;;;;22.00;2.85;;;45.80;54.80;;;;;;4869490;28;20189;-74
2021/09/15 13:02:30;;;;;;;9.57;1.40;;;46.00;54.80;;;;;;4873304;28;20238;-78
2021/09/15 13:04:53;;;;;;;25.77;3.45;;;;;;;;;;4877000;28;20193;-73
2021/09/15 13:07:17;;;;;;;10.73;1.60;;;;;;;;;;4880156;28;20181;-74
2021/09/15 13:09:40;;;;;;;14.57;2.08;;;;;;;;;;4876366;28;20177;-74
2021/09/15 13:12:02;;;;;;;8.07;1.33;;;;;;;;;;4857200;28;20705;-75
2021/09/15 13:14:25;;;;;;;6.50;1.00;;;;;;;;;;4857901;28;20192;-76
2021/09/15 13:16:49;;;;;;;10.45;1.58;;;41.90;53.40;;;;;;4869129;28;20220;-77
2021/09/15 13:19:12;;;;;;;8.82;1.40;;;;;;;;;;4876317;28;20639;-74
2021/09/15 13:21:41;;;;;;;10.05;1.48;;;39.40;52.50;;;;;;4875371;28;20251;-74
2021/09/15 13:24:04;;;;;;;8.32;1.25;;;;;;;;;;4867722;28;20640;-74
2021/09/15 13:26:28;;;;;;;20.90;3.08;;;;;;;;;;4864677;28;20193;-77
2021/09/15 13:28:50;;;;;;;11.77;1.77;;;;;;;;;;4866544;28;20201;-72
2021/09/15 13:31:13;;;;;;;10.05;1.60;;;;;;;;;;4869642;28;20208;-75
2021/09/15 13:33:37;;;;;;;8.13;1.35;;;36.10;51.30;;;;;;4880743;28;20181;-76
2021/09/15 13:36:00;;;;;;;7.80;1.23;;;;;;;;;;4865737;28;20221;-72
2021/09/15 13:38:23;;;;;;;10.35;1.60;;;;;;;;;;4863163;28;20185;-73
2021/09/15 13:40:46;;;;;;;10.82;1.77;;;;;;;;;;4864501;28;20181;-73
2021/09/15 13:43:09;;;;;;;13.20;2.17;;;;;;;;;;4870131;28;20728;-73
2021/09/15 13:45:31;;;;;;;9.10;1.52;;;;;;;;;;4875988;28;20193;-73
2021/09/15 13:47:54;;;;;;;11.05;1.80;;;;;;;;;;4864332;28;20236;-73
2021/09/15 13:50:20;;;;;;;7.20;1.23;;;33.20;50.20;;;;;;4861129;28;20189;-73
2021/09/15 13:52:43;;;;;;;14.57;2.35;;;;;;;;;;4867649;28;20216;-73
2021/09/15 13:55:06;;;;;;;9.90;1.63;;;32.70;49.90;;;;;;4868800;28;20554;-73
2021/09/15 13:57:29;;;;;;;8.15;1.40;;;;;;;;;;4868453;28;20193;-73